الصفحة الرئيسية
METAR-TAF:

METAR-TAF

مطار :

Fort Severn, أونتاريو, كندا

دائرة عرض: 56-01-08N, خط طول: 87-40-34W, ارتفاع: 16 متر

مراقبة الطقس الحالي

تاريخ ووقت الإصدار 1ساعة و 14 دقيقة قبل الساعة 17:00UTC
ريح 9 عقدة من الجنوب الغربي تتزايد حتى 17 عقدة
درجة الحرارة 22°درجة مئوية
الرطوبة 31%
ضغط 1009 hPa
الرؤية: 14.5 كم
غيوم مفككة على ارتفاع 13000 قدم
غيوم مفككة على ارتفاع 24000 قدم

METAR: CYER 151700Z AUTO 23009G17KT 9SM BKN130 BKN240 22/04 A2979 RMK SLP091 DENSITY ALT 1000FT

زمن: 14:14 (18:14 UTC)

توقعات

تاريخ ووقت الإصدار 3ساعات و 34 دقيقة قبل الساعة 14:40UTC
التوقعات صالحة من15 الساعة 15 UTC إلى 15 الساعة 19 UTC
ريح 7 عقدة من الشرق/الجنوب الشرقي
الرؤية: 10 كم
غيوم مفككة على ارتفاع 9000 قدم

TAF: CYER 151440Z 1515/1519 12007KT P6SM BKN090 RMK FCST BASED ON AUTO OBS. NXT FCST BY 160900Z

أرصاد الطقس والتوقعات من أكثر من 4000 مطار (تقارير الطقس للمطار METAR والتنبؤ بالطقس بالمطارTAF).

المحطات المتاحة هي النقط الصفراء والحمراء على الخريطة.

حرك المؤشر فوق النقطة لمعرفة اسم المحطة.

ثم انقر لمعرفة أرصاد وتوقعات الطقس.

لتغيير الخارطة: اضغط على الأزرار الخضراء مع رمز الصليب الأسود للتكبير. على الزر الأخضر مع شرطة للتصغير، أو على الأسهم الخضراء للخرائط المجاورة.


METAR-TAF: